Time;durP1;ratioP1;P1;durP2;ratioP2;P2;SDS_P1;SDS_P2;PMS_P1;PMS_P2;Temp;Humidity;BMP_temperature;BMP_pressure;BME280_temperature;BME280_humidity;BME280_pressure;Samples;Min_cycle;Max_cycle;Signal;HPM_P1;HPM_P2
2021/07/29 00:00:16;;;;;;;10.80;3.30;;;18.10;99.90;;;;;;4973971;28;20458;-87
2021/07/29 00:02:42;;;;;;;11.83;3.20;;;17.90;99.90;;;;;;4969559;28;20459;-87
2021/07/29 00:05:10;;;;;;;14.27;3.87;;;17.90;99.90;;;;;;4972269;28;20471;-88
2021/07/29 00:07:37;;;;;;;12.97;3.87;;;17.70;99.90;;;;;;4959804;28;20504;-87
2021/07/29 00:10:05;;;;;;;11.63;3.40;;;17.60;99.90;;;;;;4968626;28;20460;-88
2021/07/29 00:12:32;;;;;;;11.50;3.03;;;17.40;99.90;;;;;;4974174;28;20460;-87
2021/07/29 00:14:59;;;;;;;11.10;3.50;;;17.40;99.90;;;;;;4973794;28;20451;-87
2021/07/29 00:19:01;;;;;;;9.47;3.10;;;17.40;99.90;;;;;;4969564;28;20479;-88
2021/07/29 00:20:18;;;;;;;9.80;3.20;;;17.40;99.90;;;;;;4973222;28;20475;-87
2021/07/29 00:22:48;;;;;;;11.17;3.67;;;17.40;99.90;;;;;;4973948;28;20453;-88
2021/07/29 00:25:16;;;;;;;9.57;3.10;;;17.30;99.90;;;;;;4957814;28;20485;-88
2021/07/29 00:27:44;;;;;;;9.30;2.97;;;17.30;99.90;;;;;;4969033;28;20556;-88
2021/07/29 00:30:12;;;;;;;9.10;3.03;;;17.30;99.90;;;;;;4958652;28;20460;-87
2021/07/29 00:32:41;;;;;;;9.00;3.53;;;17.20;99.90;;;;;;4954579;28;20470;-88
2021/07/29 00:35:14;;;;;;;9.00;3.60;;;17.10;99.90;;;;;;4958720;28;20458;-88
2021/07/29 00:40:20;;;;;;;9.57;3.60;;;17.20;99.90;;;;;;4963149;28;20473;-89
2021/07/29 00:42:48;;;;;;;8.53;3.23;;;17.10;99.90;;;;;;4958492;29;20486;-89
2021/07/29 00:45:14;;;;;;;8.23;3.03;;;17.00;99.90;;;;;;4957635;29;20870;-88
2021/07/29 00:47:45;;;;;;;15.17;3.57;;;17.00;99.90;;;;;;4957103;28;20448;-89
2021/07/29 00:50:14;;;;;;;8.03;3.00;;;17.00;99.90;;;;;;4957282;29;20511;-88
2021/07/29 00:52:41;;;;;;;10.10;3.00;;;17.10;99.90;;;;;;4952941;29;20460;-89
2021/07/29 00:55:10;;;;;;;8.80;2.90;;;17.10;99.90;;;;;;4941843;29;20975;-89
2021/07/29 00:57:37;;;;;;;8.97;3.27;;;17.00;99.90;;;;;;4950003;29;20463;-88
2021/07/29 01:00:06;;;;;;;8.23;2.80;;;17.10;99.90;;;;;;4954524;28;20456;-89
2021/07/29 01:02:33;;;;;;;11.70;3.63;;;17.00;99.90;;;;;;4942837;29;20467;-88
2021/07/29 01:05:01;;;;;;;9.20;3.67;;;17.10;99.90;;;;;;4943996;29;20466;-89
2021/07/29 01:07:28;;;;;;;10.37;4.20;;;17.10;99.90;;;;;;4936748;29;20466;-87
2021/07/29 01:09:54;;;;;;;8.90;3.40;;;17.10;99.90;;;;;;4936077;29;20486;-88
2021/07/29 01:12:21;;;;;;;10.90;3.43;;;17.10;99.90;;;;;;4946589;29;20838;-89
2021/07/29 01:14:48;;;;;;;10.50;3.50;;;17.00;99.90;;;;;;4936159;29;20447;-88
2021/07/29 01:17:15;;;;;;;8.47;3.80;;;17.00;99.90;;;;;;4946267;29;20469;-88
2021/07/29 01:19:42;;;;;;;10.13;3.60;;;17.00;99.90;;;;;;4943566;28;20575;-87
2021/07/29 01:22:11;;;;;;;10.07;3.70;;;16.90;99.90;;;;;;4936122;29;21039;-87
2021/07/29 01:24:38;;;;;;;8.40;3.03;;;16.90;99.90;;;;;;4945810;29;20950;-87
2021/07/29 01:27:05;;;;;;;8.87;3.30;;;16.80;99.90;;;;;;4945833;29;20997;-88
2021/07/29 01:29:32;;;;;;;9.33;3.50;;;16.90;99.90;;;;;;4950898;29;21001;-87
2021/07/29 01:31:59;;;;;;;10.23;3.43;;;16.90;99.90;;;;;;4954298;29;20439;-87
2021/07/29 01:34:26;;;;;;;8.43;3.03;;;16.80;99.90;;;;;;4943077;29;20464;-87
2021/07/29 01:36:53;;;;;;;8.83;2.90;;;16.80;99.90;;;;;;4936592;29;20461;-88
2021/07/29 01:39:21;;;;;;;7.90;2.60;;;16.80;99.90;;;;;;4944175;29;21010;-88
2021/07/29 01:41:48;;;;;;;11.07;2.93;;;16.70;99.90;;;;;;4954043;29;20470;-87
2021/07/29 01:44:14;;;;;;;10.30;3.00;;;16.80;99.90;;;;;;4954757;29;20551;-87
2021/07/29 01:46:41;;;;;;;11.43;3.30;;;16.60;99.90;;;;;;4949132;29;20463;-88
2021/07/29 01:49:08;;;;;;;9.43;2.50;;;16.60;99.90;;;;;;4946757;29;20488;-87
2021/07/29 01:51:35;;;;;;;12.10;2.60;;;16.70;99.90;;;;;;4937111;29;20467;-89
2021/07/29 01:54:02;;;;;;;8.40;2.67;;;16.70;99.90;;;;;;4947087;29;20464;-86
2021/07/29 01:56:30;;;;;;;9.43;2.63;;;16.60;99.90;;;;;;4949052;29;21028;-87
2021/07/29 01:58:57;;;;;;;8.50;2.63;;;16.60;99.90;;;;;;4934119;29;20477;-87
2021/07/29 02:01:24;;;;;;;11.23;2.87;;;16.60;99.90;;;;;;4935150;29;21240;-86
2021/07/29 02:03:51;;;;;;;8.27;2.63;;;16.60;99.90;;;;;;4935207;29;20464;-86
2021/07/29 02:06:18;;;;;;;8.03;2.40;;;16.70;99.90;;;;;;4935445;29;20461;-86
2021/07/29 02:08:45;;;;;;;8.63;2.70;;;16.60;99.90;;;;;;4935247;29;20578;-86
2021/07/29 02:11:12;;;;;;;8.10;2.80;;;16.60;99.90;;;;;;4935824;29;20471;-88
2021/07/29 02:13:40;;;;;;;10.90;2.90;;;16.60;99.90;;;;;;4951965;29;20466;-87
2021/07/29 02:16:11;;;;;;;8.13;2.30;;;16.50;99.90;;;;;;4938420;29;20464;-86
2021/07/29 02:18:37;;;;;;;7.90;2.30;;;16.50;99.90;;;;;;4955368;29;20483;-86
2021/07/29 02:21:08;;;;;;;8.40;2.63;;;16.60;99.90;;;;;;4938939;29;20465;-86
2021/07/29 02:23:35;;;;;;;9.17;2.53;;;16.50;99.90;;;;;;4939072;29;20463;-86
2021/07/29 02:26:02;;;;;;;8.47;2.50;;;16.50;99.90;;;;;;4938534;29;20814;-86
2021/07/29 02:28:29;;;;;;;12.50;3.10;;;16.60;99.90;;;;;;4971157;29;20546;-86
2021/07/29 02:30:57;;;;;;;9.80;3.00;;;16.50;99.90;;;;;;4962188;29;20836;-86
2021/07/29 02:33:24;;;;;;;8.40;2.50;;;16.60;99.90;;;;;;4953700;29;20449;-86
2021/07/29 02:35:51;;;;;;;9.30;2.93;;;16.40;99.90;;;;;;4955535;29;20475;-87
2021/07/29 02:38:18;;;;;;;7.57;2.60;;;16.40;99.90;;;;;;4956938;29;20487;-86
2021/07/29 02:40:45;;;;;;;9.77;3.20;;;16.40;99.90;;;;;;4957705;29;20822;-87
2021/07/29 02:43:12;;;;;;;8.40;2.70;;;16.40;99.90;;;;;;4941887;29;20987;-87
2021/07/29 02:45:38;;;;;;;8.77;3.00;;;16.40;99.90;;;;;;4957540;29;20456;-88
2021/07/29 02:48:07;;;;;;;8.97;2.43;;;16.30;99.90;;;;;;4951805;29;20479;-87
2021/07/29 02:50:34;;;;;;;9.17;3.10;;;16.30;99.90;;;;;;4937876;29;20500;-87
2021/07/29 02:53:01;;;;;;;8.10;2.60;;;16.20;99.90;;;;;;4948647;29;20453;-86
2021/07/29 02:55:28;;;;;;;8.97;2.70;;;16.30;99.90;;;;;;4947679;29;20991;-87
2021/07/29 02:57:54;;;;;;;8.50;2.67;;;16.30;99.90;;;;;;4942633;29;20463;-87
2021/07/29 03:00:21;;;;;;;8.97;4.07;;;16.30;99.90;;;;;;4936881;29;20529;-86
2021/07/29 03:02:48;;;;;;;8.80;2.33;;;16.40;99.90;;;;;;4938989;29;20464;-87
2021/07/29 03:05:16;;;;;;;7.53;2.47;;;16.20;99.90;;;;;;4956582;29;20465;-87
2021/07/29 03:07:43;;;;;;;8.70;2.33;;;16.30;99.90;;;;;;4949694;29;20469;-87
2021/07/29 03:10:13;;;;;;;9.20;3.03;;;16.40;99.90;;;;;;4955892;29;20500;-87
2021/07/29 03:12:39;;;;;;;11.43;2.77;;;16.30;99.90;;;;;;4959073;29;20458;-86
2021/07/29 03:15:07;;;;;;;9.33;2.90;;;16.20;99.90;;;;;;4939162;29;20486;-87
2021/07/29 03:17:34;;;;;;;11.07;3.10;;;16.30;99.90;;;;;;4938714;29;20470;-86
2021/07/29 03:20:01;;;;;;;8.33;2.60;;;16.20;99.90;;;;;;4951232;29;20480;-86
2021/07/29 03:22:29;;;;;;;11.83;3.17;;;16.20;99.90;;;;;;4959332;28;20485;-85
2021/07/29 03:24:56;;;;;;;10.67;2.80;;;16.10;99.90;;;;;;4956758;29;20451;-86
2021/07/29 03:27:23;;;;;;;10.87;3.17;;;16.10;99.90;;;;;;4948526;29;20978;-86
2021/07/29 03:29:50;;;;;;;9.40;3.07;;;16.00;99.90;;;;;;4936622;29;20870;-86
2021/07/29 03:32:16;;;;;;;8.97;2.83;;;16.00;99.90;;;;;;4937494;29;20462;-87
2021/07/29 03:34:43;;;;;;;10.70;2.90;;;16.00;99.90;;;;;;4940301;29;20460;-85
2021/07/29 03:37:10;;;;;;;7.80;2.80;;;15.90;99.90;;;;;;4941038;29;20475;-87
2021/07/29 03:39:38;;;;;;;10.90;3.30;;;15.90;99.90;;;;;;4936369;29;20855;-87
2021/07/29 03:42:05;;;;;;;10.37;3.10;;;16.00;99.90;;;;;;4942975;29;20460;-88
2021/07/29 03:44:32;;;;;;;7.90;2.73;;;16.00;99.90;;;;;;4939221;29;20540;-86
2021/07/29 03:46:59;;;;;;;11.73;3.03;;;16.10;99.90;;;;;;4940930;29;20525;-87
2021/07/29 03:49:26;;;;;;;8.87;2.53;;;16.00;99.90;;;;;;4954985;29;20866;-84
2021/07/29 03:51:53;;;;;;;13.93;3.47;;;15.90;99.90;;;;;;4955402;29;20456;-87
2021/07/29 03:54:19;;;;;;;8.37;3.80;;;16.00;99.90;;;;;;4947780;29;20971;-87
2021/07/29 03:56:48;;;;;;;13.00;3.33;;;16.00;99.90;;;;;;4937217;29;20487;-86
2021/07/29 03:59:14;;;;;;;13.03;2.90;;;16.00;99.90;;;;;;4936360;29;20479;-86
2021/07/29 04:01:41;;;;;;;12.20;3.10;;;16.00;99.90;;;;;;4937194;29;20457;-82
2021/07/29 04:04:08;;;;;;;10.80;3.00;;;16.00;99.90;;;;;;4937017;29;20972;-81
2021/07/29 04:06:35;;;;;;;8.27;2.53;;;16.00;99.90;;;;;;4953963;29;20460;-81
2021/07/29 04:09:01;;;;;;;8.87;2.60;;;16.00;99.90;;;;;;4941622;29;20515;-81
2021/07/29 04:11:28;;;;;;;11.93;3.10;;;16.10;99.90;;;;;;4954926;29;20458;-82
2021/07/29 04:13:56;;;;;;;9.60;3.07;;;16.20;99.90;;;;;;4936577;29;20534;-81
2021/07/29 04:16:23;;;;;;;11.17;3.43;;;16.30;99.90;;;;;;4937719;29;20453;-81
2021/07/29 04:18:50;;;;;;;10.33;3.23;;;16.20;99.90;;;;;;4940409;29;20474;-81
2021/07/29 04:21:17;;;;;;;9.70;3.13;;;16.20;99.90;;;;;;4957351;29;20551;-82
2021/07/29 04:23:44;;;;;;;13.67;3.47;;;16.20;99.90;;;;;;4958498;29;20458;-81
2021/07/29 04:26:11;;;;;;;10.40;2.63;;;16.20;99.90;;;;;;4960310;29;20457;-83
2021/07/29 04:28:37;;;;;;;9.37;3.10;;;16.30;99.90;;;;;;4942802;29;20492;-82
2021/07/29 04:31:06;;;;;;;10.93;2.93;;;16.40;99.90;;;;;;4947870;29;20510;-87
2021/07/29 04:33:32;;;;;;;11.30;3.83;;;16.50;99.90;;;;;;4945222;29;20458;-85
2021/07/29 04:35:59;;;;;;;10.87;3.70;;;16.40;99.90;;;;;;4954781;29;20844;-85
2021/07/29 04:38:26;;;;;;;9.27;3.33;;;16.40;99.90;;;;;;4946430;29;20557;-85
2021/07/29 04:41:01;;;;;;;15.17;3.50;;;16.50;99.90;;;;;;4956808;29;20460;-85
2021/07/29 04:43:28;;;;;;;9.67;3.70;;;16.60;99.90;;;;;;4942665;29;20472;-86
2021/07/29 04:45:55;;;;;;;13.80;3.10;;;16.70;99.90;;;;;;4944000;29;20459;-85
2021/07/29 04:48:23;;;;;;;11.50;2.97;;;16.70;99.90;;;;;;4946737;29;20476;-85
2021/07/29 04:50:50;;;;;;;9.70;3.10;;;16.70;99.90;;;;;;4962625;29;20481;-84
2021/07/29 04:53:18;;;;;;;11.83;3.67;;;16.70;99.90;;;;;;4955857;29;20575;-84
2021/07/29 04:55:46;;;;;;;9.93;3.00;;;16.80;99.90;;;;;;4963233;29;20471;-85
2021/07/29 04:58:15;;;;;;;9.30;3.07;;;16.60;99.90;;;;;;4955071;29;20482;-86
2021/07/29 05:00:43;;;;;;;12.00;2.97;;;16.60;99.90;;;;;;4953617;29;20831;-85
2021/07/29 05:03:13;;;;;;;13.83;3.33;;;16.60;99.90;;;;;;4961342;28;20486;-86
2021/07/29 05:05:42;;;;;;;10.73;3.10;;;16.60;99.90;;;;;;4954820;29;20460;-85
2021/07/29 05:16:59;;;;;;;10.00;3.00;;;16.60;99.90;;;;;;5004593;28;20453;-86
2021/07/29 05:19:30;;;;;;;13.90;3.00;;;16.70;99.90;;;;;;5004872;28;20477;-85
2021/07/29 05:25:11;;;;;;;9.20;3.10;;;16.60;99.90;;;;;;4991093;28;20452;-82
2021/07/29 05:27:38;;;;;;;7.77;2.20;;;16.60;99.90;;;;;;5006411;28;20533;-81
2021/07/29 05:30:06;;;;;;;9.80;2.30;;;16.70;99.90;;;;;;5001216;28;20500;-82
2021/07/29 05:32:33;;;;;;;11.33;2.50;;;16.60;99.90;;;;;;4995496;28;20476;-84
2021/07/29 05:35:00;;;;;;;10.70;3.63;;;16.60;99.90;;;;;;5014620;28;20482;-82
2021/07/29 05:37:28;;;;;;;13.57;3.30;;;16.60;99.90;;;;;;5015288;28;20614;-81
2021/07/29 05:39:55;;;;;;;11.83;2.97;;;16.70;99.90;;;;;;5014547;28;20548;-81
2021/07/29 05:42:24;;;;;;;11.77;2.90;;;16.70;99.90;;;;;;4998680;28;20445;-81
2021/07/29 05:44:53;;;;;;;10.37;2.67;;;16.70;99.90;;;;;;4994808;28;20482;-81
2021/07/29 05:47:21;;;;;;;10.33;2.20;;;16.80;99.90;;;;;;4997262;28;20463;-81
2021/07/29 05:49:48;;;;;;;9.83;2.67;;;16.80;99.90;;;;;;4999246;28;20918;-82
2021/07/29 05:52:14;;;;;;;12.93;2.90;;;16.90;99.90;;;;;;5000694;28;20452;-82
2021/07/29 05:54:43;;;;;;;12.03;2.60;;;16.80;99.90;;;;;;5001305;28;20896;-83
2021/07/29 05:57:09;;;;;;;10.07;2.87;;;16.80;99.90;;;;;;5007531;28;20563;-83
2021/07/29 05:59:36;;;;;;;13.37;3.23;;;16.70;99.90;;;;;;5017461;28;20560;-83
2021/07/29 06:02:03;;;;;;;10.57;2.70;;;16.80;99.90;;;;;;5017421;28;20548;-82
2021/07/29 06:04:30;;;;;;;11.50;2.27;;;16.80;99.90;;;;;;5008565;28;20457;-83
2021/07/29 06:06:57;;;;;;;14.13;2.80;;;16.80;99.90;;;;;;5000944;28;20457;-82
2021/07/29 06:09:23;;;;;;;10.93;2.20;;;16.80;99.90;;;;;;5002779;28;20932;-83
2021/07/29 06:11:52;;;;;;;11.87;3.00;;;16.90;99.90;;;;;;5006006;28;20467;-83
2021/07/29 06:14:18;;;;;;;11.83;2.40;;;17.00;99.90;;;;;;5007233;28;20563;-85
2021/07/29 06:16:45;;;;;;;10.67;2.17;;;17.00;99.90;;;;;;5015303;28;20547;-84
2021/07/29 06:19:17;;;;;;;11.80;2.50;;;17.00;99.90;;;;;;5014158;28;20906;-83
2021/07/29 06:21:44;;;;;;;12.83;2.70;;;17.00;99.90;;;;;;5001205;28;20464;-83
2021/07/29 06:24:11;;;;;;;10.57;2.57;;;17.10;99.90;;;;;;5006708;28;20830;-83
2021/07/29 06:26:38;;;;;;;10.77;2.43;;;17.10;99.90;;;;;;5001852;28;20545;-83
2021/07/29 06:29:07;;;;;;;10.70;2.10;;;17.10;99.90;;;;;;5006136;28;20471;-83
2021/07/29 06:31:34;;;;;;;11.57;2.27;;;17.10;99.90;;;;;;5015029;28;21028;-81
2021/07/29 06:34:01;;;;;;;12.17;1.90;;;17.10;99.90;;;;;;5018422;28;20457;-83
2021/07/29 06:36:28;;;;;;;10.70;2.37;;;17.20;99.90;;;;;;5021671;28;20457;-84
2021/07/29 06:38:57;;;;;;;15.73;3.40;;;17.20;99.90;;;;;;5011958;23;20517;-85
2021/07/29 06:41:24;;;;;;;14.83;2.37;;;17.10;99.90;;;;;;4975498;28;20474;-85
2021/07/29 06:43:51;;;;;;;14.00;2.20;;;17.20;99.90;;;;;;4977617;28;20446;-86
2021/07/29 06:46:19;;;;;;;15.03;2.17;;;17.30;99.90;;;;;;4967246;28;20901;-84
2021/07/29 06:48:46;;;;;;;10.90;1.80;;;17.30;99.90;;;;;;4956864;29;20480;-85
2021/07/29 06:51:13;;;;;;;19.03;2.27;;;17.30;99.90;;;;;;4956604;29;20484;-86
2021/07/29 06:53:40;;;;;;;18.10;2.93;;;17.30;99.90;;;;;;4940990;29;20823;-85
2021/07/29 06:56:08;;;;;;;14.90;2.40;;;17.40;99.90;;;;;;4944293;29;20456;-86
2021/07/29 06:58:35;;;;;;;12.47;2.93;;;17.50;99.90;;;;;;4958844;28;20476;-85
2021/07/29 07:01:02;;;;;;;14.27;2.00;;;17.60;99.90;;;;;;4959440;29;20530;-85
2021/07/29 07:03:31;;;;;;;14.10;2.27;;;17.70;99.90;;;;;;4963771;29;20453;-85
2021/07/29 07:06:00;;;;;;;14.57;2.40;;;17.70;99.90;;;;;;4957562;29;20449;-85
2021/07/29 07:08:27;;;;;;;20.40;2.50;;;17.70;99.90;;;;;;4972387;28;20492;-86
2021/07/29 07:10:54;;;;;;;14.10;1.97;;;17.70;99.90;;;;;;4962811;28;20563;-85
2021/07/29 07:13:21;;;;;;;13.30;1.80;;;17.70;99.90;;;;;;4960487;29;20515;-84
2021/07/29 07:15:48;;;;;;;12.93;2.20;;;17.70;99.90;;;;;;4954305;28;20458;-84
2021/07/29 07:18:16;;;;;;;17.13;2.33;;;17.70;99.90;;;;;;4941459;29;20456;-85
2021/07/29 07:20:44;;;;;;;14.53;2.47;;;17.80;99.90;;;;;;4946881;29;20907;-85
2021/07/29 07:23:11;;;;;;;19.07;2.90;;;17.80;99.90;;;;;;4951882;29;20978;-84
2021/07/29 07:25:38;;;;;;;20.60;2.10;;;17.80;99.90;;;;;;4960942;28;20471;-85
2021/07/29 07:28:06;;;;;;;16.83;2.00;;;17.90;99.90;;;;;;4959318;29;20897;-84
2021/07/29 07:30:32;;;;;;;14.83;1.87;;;17.90;99.90;;;;;;4962351;29;21131;-84
2021/07/29 07:33:00;;;;;;;15.80;2.30;;;18.00;99.90;;;;;;4969557;29;20464;-84
2021/07/29 07:35:27;;;;;;;18.00;2.33;;;18.10;99.90;;;;;;4967165;28;20501;-83
2021/07/29 07:37:56;;;;;;;20.10;2.10;;;18.30;99.90;;;;;;4974352;29;20571;-85
2021/07/29 07:40:23;;;;;;;18.40;2.10;;;18.40;99.90;;;;;;4974184;29;20472;-84
2021/07/29 07:42:50;;;;;;;16.17;1.97;;;18.30;99.90;;;;;;4973901;29;20474;-84
2021/07/29 07:45:17;;;;;;;21.73;2.50;;;18.30;99.90;;;;;;4970120;29;20479;-84
2021/07/29 07:47:44;;;;;;;15.13;2.60;;;18.60;99.90;;;;;;4963577;29;20458;-85
2021/07/29 07:50:12;;;;;;;14.37;2.17;;;18.70;99.90;;;;;;4953930;29;20496;-85
2021/07/29 07:52:38;;;;;;;15.30;2.00;;;18.90;99.90;;;;;;4943791;29;20494;-85
2021/07/29 07:55:07;;;;;;;16.00;2.20;;;18.80;99.90;;;;;;4945907;29;20453;-84
2021/07/29 07:57:34;;;;;;;15.77;1.80;;;18.90;99.90;;;;;;4945211;29;20984;-85
2021/07/29 08:00:01;;;;;;;16.23;1.83;;;18.90;99.90;;;;;;4950130;29;20559;-85
2021/07/29 08:02:28;;;;;;;17.80;2.00;;;19.00;99.90;;;;;;4943178;29;20564;-85
2021/07/29 08:04:55;;;;;;;15.93;2.20;;;19.00;99.90;;;;;;4939402;29;20887;-85
2021/07/29 08:07:21;;;;;;;15.10;2.50;;;19.20;99.90;;;;;;4954759;29;20548;-85
2021/07/29 08:09:48;;;;;;;16.93;2.13;;;19.30;99.90;;;;;;4953578;28;20559;-85
2021/07/29 08:12:17;;;;;;;19.03;2.20;;;19.20;99.90;;;;;;4939166;29;20996;-84
2021/07/29 08:14:43;;;;;;;22.50;3.30;;;19.10;99.90;;;;;;4940612;29;20452;-85
2021/07/29 08:17:10;;;;;;;23.43;1.87;;;19.00;99.90;;;;;;4939685;29;20453;-85
2021/07/29 08:19:37;;;;;;;18.90;2.53;;;19.10;99.90;;;;;;4940951;29;21081;-86
2021/07/29 08:22:04;;;;;;;17.20;2.27;;;19.30;99.90;;;;;;4958564;29;20455;-85
2021/07/29 08:24:34;;;;;;;19.50;2.33;;;19.50;99.90;;;;;;4952445;28;20464;-85
2021/07/29 08:27:01;;;;;;;18.07;2.07;;;19.60;99.90;;;;;;4945513;29;20471;-87
2021/07/29 08:29:31;;;;;;;18.83;2.00;;;19.80;99.90;;;;;;4955126;28;20855;-86
2021/07/29 08:31:58;;;;;;;18.00;1.90;;;19.80;99.90;;;;;;4947836;29;20499;-85
2021/07/29 08:34:25;;;;;;;16.90;1.77;;;19.60;99.90;;;;;;4962267;29;20531;-85
2021/07/29 08:36:52;;;;;;;19.50;1.90;;;19.50;99.90;;;;;;4959329;28;20519;-84
2021/07/29 08:39:19;;;;;;;21.20;2.20;;;19.80;99.90;;;;;;4960013;28;21025;-84
2021/07/29 08:41:46;;;;;;;18.77;2.17;;;19.70;99.90;;;;;;4968855;28;20641;-85
2021/07/29 08:44:14;;;;;;;21.93;2.23;;;19.90;99.90;;;;;;4960590;28;20553;-86
2021/07/29 08:46:45;;;;;;;23.00;2.33;;;20.10;99.90;;;;;;4959430;28;20475;-84
2021/07/29 08:49:14;;;;;;;22.77;1.80;;;19.80;99.90;;;;;;4960802;28;20570;-85
2021/07/29 08:51:41;;;;;;;26.43;2.80;;;20.20;99.90;;;;;;4959400;28;20501;-85
2021/07/29 08:54:11;;;;;;;26.80;1.90;;;20.40;99.90;;;;;;4956801;29;20460;-84
2021/07/29 08:56:38;;;;;;;26.27;2.77;;;20.50;99.90;;;;;;4960570;28;20479;-84
2021/07/29 08:59:07;;;;;;;29.23;2.00;;;20.60;99.90;;;;;;4969728;28;20471;-83
2021/07/29 09:01:46;;;;;;;38.20;2.70;;;20.50;99.90;;;;;;4976920;29;20458;-84
2021/07/29 09:04:14;;;;;;;44.17;2.20;;;20.20;99.90;;;;;;4977382;28;20479;-84
2021/07/29 09:06:56;;;;;;;38.80;2.20;;;20.30;99.90;;;;;;4974568;29;20482;-84
2021/07/29 09:09:39;;;;;;;26.30;2.00;;;20.40;99.90;;;;;;4962321;28;20994;-85
2021/07/29 09:12:17;;;;;;;46.43;2.40;;;20.90;99.90;;;;;;4960401;29;20476;-84
2021/07/29 09:14:44;;;;;;;46.40;4.40;;;21.10;99.90;;;;;;4939971;29;20936;-85
2021/07/29 09:17:13;;;;;;;39.40;2.17;;;21.10;99.90;;;;;;4941494;29;20460;-84
2021/07/29 09:19:41;;;;;;;50.20;3.23;;;21.40;99.90;;;;;;4941593;29;21067;-85
2021/07/29 09:22:10;;;;;;;45.97;2.93;;;21.80;99.90;;;;;;4940047;29;21197;-85
2021/07/29 09:25:02;;;;;;;42.70;2.60;;;21.70;99.90;;;;;;4942978;29;20524;-85
2021/07/29 09:27:40;;;;;;;49.47;3.33;;;21.90;99.90;;;;;;4953480;28;20430;-86
2021/07/29 09:30:15;;;;;;;52.93;4.37;;;21.50;99.90;;;;;;4937555;29;20568;-84
2021/07/29 09:32:55;;;;;;;51.40;3.37;;;21.50;99.90;;;;;;4942861;29;20448;-84
2021/07/29 09:35:34;;;;;;;55.87;9.27;;;21.70;99.90;;;;;;4959263;29;20459;-84
2021/07/29 09:38:02;;;;;;;50.80;3.40;;;21.30;99.90;;;;;;4961339;29;20476;-85
2021/07/29 09:40:41;;;;;;;56.50;8.10;;;21.40;99.90;;;;;;4958234;29;20468;-85
2021/07/29 09:43:10;;;;;;;56.63;4.90;;;21.00;99.90;;;;;;4956020;29;20979;-84
2021/07/29 09:45:38;;;;;;;54.50;8.07;;;20.80;99.90;;;;;;4957839;29;20444;-85
2021/07/29 09:48:08;;;;;;;58.97;7.50;;;21.00;99.90;;;;;;4957721;29;20456;-84
2021/07/29 09:50:35;;;;;;;77.87;33.97;;;21.50;99.90;;;;;;4956678;28;20539;-84
2021/07/29 09:53:02;;;;;;;88.07;62.60;;;21.80;99.90;;;;;;4952025;29;20548;-85
2021/07/29 09:55:31;;;;;;;65.13;16.67;;;22.00;99.90;;;;;;4936503;29;20442;-85
2021/07/29 09:57:59;;;;;;;62.80;15.73;;;22.00;99.90;;;;;;4936898;29;20445;-85
2021/07/29 10:00:26;;;;;;;75.67;45.97;;;22.40;99.90;;;;;;4936559;29;20564;-85
2021/07/29 10:02:55;;;;;;;121.53;110.07;;;22.80;99.90;;;;;;4936379;29;20990;-84
2021/07/29 10:05:27;;;;;;;96.43;85.53;;;22.90;99.90;;;;;;4937554;29;20461;-86
2021/07/29 10:07:57;;;;;;;378.37;354.43;;;22.80;99.90;;;;;;4956234;29;20543;-85
2021/07/29 10:10:25;;;;;;;207.50;192.50;;;23.00;99.90;;;;;;4956211;29;21029;-84
2021/07/29 10:12:53;;;;;;;144.97;132.40;;;23.30;99.90;;;;;;4951864;29;20488;-84
2021/07/29 10:15:40;;;;;;;422.77;397.50;;;23.80;99.90;;;;;;4937426;29;20500;-85
2021/07/29 10:18:08;;;;;;;543.00;512.30;;;23.70;99.90;;;;;;4956800;29;20476;-84
2021/07/29 10:20:38;;;;;;;1425.33;751.60;;;23.80;99.90;;;;;;4954811;29;20704;-85
2021/07/29 10:23:31;;;;;;;690.00;647.07;;;24.10;99.90;;;;;;4956328;29;20461;-84
2021/07/29 10:26:06;;;;;;;1999.90;999.90;;;24.00;99.90;;;;;;4943147;28;20496;-85
2021/07/29 10:28:38;;;;;;;1999.90;999.90;;;24.20;99.90;;;;;;4955097;29;20476;-85
2021/07/29 10:31:06;;;;;;;1999.90;999.90;;;23.90;99.90;;;;;;4955200;29;20488;-86
2021/07/29 10:33:33;;;;;;;735.10;690.30;;;24.10;99.90;;;;;;4959425;28;20448;-85
2021/07/29 10:36:02;;;;;;;1999.90;999.90;;;24.50;99.90;;;;;;4961709;29;20487;-85
2021/07/29 10:38:50;;;;;;;1999.90;999.90;;;24.50;99.90;;;;;;4954079;29;20477;-84
2021/07/29 10:41:47;;;;;;;1999.90;999.90;;;24.60;99.90;;;;;;4945338;29;20453;-86
2021/07/29 10:44:54;;;;;;;1999.90;999.90;;;24.80;99.90;;;;;;4962054;28;20880;-84
2021/07/29 10:47:40;;;;;;;1999.90;999.90;;;24.70;99.90;;;;;;4957854;28;20993;-85
2021/07/29 10:50:28;;;;;;;1437.77;762.93;;;24.30;99.90;;;;;;4938848;28;20564;-85
2021/07/29 10:52:56;;;;;;;450.40;420.43;;;23.30;99.90;;;;;;4953132;29;20567;-85
2021/07/29 10:55:23;;;;;;;432.73;403.17;;;23.00;99.90;;;;;;4959595;28;20495;-85
2021/07/29 10:58:11;;;;;;;1999.90;999.90;;;22.60;99.90;;;;;;4946928;28;20450;-84
2021/07/29 11:00:39;;;;;;;1999.90;999.90;;;21.90;99.90;;;;;;4941527;28;20533;-86
2021/07/29 11:03:20;;;;;;;501.80;472.60;;;21.80;99.90;;;;;;4944546;29;20532;-85
2021/07/29 11:06:03;;;;;;;1999.90;999.90;;;21.90;99.90;;;;;;4949160;29;20461;-85
2021/07/29 11:08:31;;;;;;;803.57;459.07;;;22.70;99.90;;;;;;4951505;29;20532;-85
2021/07/29 11:11:00;;;;;;;1999.90;999.90;;;23.50;99.90;;;;;;4964579;28;20535;-85
2021/07/29 11:13:28;;;;;;;1999.90;999.90;;;23.90;99.90;;;;;;4963003;29;20464;-85
2021/07/29 11:15:56;;;;;;;1999.90;999.90;;;23.30;99.90;;;;;;4973562;28;20460;-84
2021/07/29 11:18:23;;;;;;;612.33;576.67;;;22.80;99.90;;;;;;4962612;28;20598;-84
2021/07/29 11:20:51;;;;;;;171.73;156.70;;;22.50;99.90;;;;;;4963520;28;20457;-84
2021/07/29 11:26:15;;;;;;;331.77;311.90;;;22.20;99.90;;;;;;5138264;27;20575;-84
2021/07/29 11:28:41;;;;;;;421.77;398.13;;;21.80;99.90;;;;;;5135442;27;20517;-84
2021/07/29 11:31:08;;;;;;;457.27;430.83;;;21.60;99.90;;;;;;5134875;28;20539;-84
2021/07/29 11:33:35;;;;;;;400.07;377.80;;;21.40;99.90;;;;;;5137600;27;20524;-84
2021/07/29 11:36:08;;;;;;;198.73;184.23;;;21.30;99.90;;;;;;5116138;28;20819;-84
2021/07/29 11:38:35;;;;;;;345.17;325.00;;;21.50;99.90;;;;;;5114862;28;20480;-83
2021/07/29 11:41:05;;;;;;;1999.90;999.90;;;22.00;99.90;;;;;;5117281;28;20452;-85
2021/07/29 11:43:34;;;;;;;1999.90;999.90;;;22.90;99.90;;;;;;5132376;28;20448;-84
2021/07/29 11:46:09;;;;;;;1999.90;999.90;;;23.60;99.90;;;;;;5137586;27;20494;-85
2021/07/29 11:48:36;;;;;;;1457.83;782.23;;;24.50;99.90;;;;;;5132356;27;20556;-84
2021/07/29 11:51:14;;;;;;;1999.90;999.90;;;25.10;99.90;;;;;;5140111;27;20453;-83
2021/07/29 11:53:44;;;;;;;1999.90;999.90;;;25.30;99.90;;;;;;5141078;27;20466;-81
2021/07/29 11:56:12;;;;;;;1999.90;999.90;;;25.80;99.90;;;;;;5138359;27;20536;-81
2021/07/29 11:58:42;;;;;;;1999.90;999.90;;;25.80;99.90;;;;;;5135854;27;20484;-82
2021/07/29 12:01:12;;;;;;;1999.90;999.90;;;25.60;99.90;;;;;;5133835;28;20444;-82
2021/07/29 12:03:42;;;;;;;1999.90;999.90;;;24.90;99.90;;;;;;5138170;27;20555;-82
2021/07/29 12:06:10;;;;;;;1999.90;999.90;;;24.70;99.90;;;;;;5136729;28;20548;-82
2021/07/29 12:08:41;;;;;;;1999.90;999.90;;;25.50;99.90;;;;;;5118653;27;20568;-82
2021/07/29 12:11:10;;;;;;;1999.90;999.90;;;26.00;99.90;;;;;;5127367;28;20452;-83
2021/07/29 12:13:41;;;;;;;1999.90;999.90;;;26.60;99.90;;;;;;5139684;28;20499;-83
2021/07/29 12:16:08;;;;;;;1999.90;999.90;;;26.90;99.90;;;;;;5139231;27;20429;-81
2021/07/29 12:18:35;;;;;;;1999.90;999.90;;;27.10;99.90;;;;;;5138987;28;20555;-83
2021/07/29 12:21:02;;;;;;;1999.90;999.90;;;27.30;99.90;;;;;;5133124;27;20459;-83
2021/07/29 12:23:29;;;;;;;1999.90;999.90;;;26.90;99.90;;;;;;5118138;28;20483;-83
2021/07/29 12:26:10;;;;;;;1999.90;999.90;;;27.30;99.90;;;;;;5116134;28;20568;-82
2021/07/29 12:28:43;;;;;;;1999.90;999.90;;;27.00;99.90;;;;;;5118266;28;20495;-84
2021/07/29 12:31:21;;;;;;;1999.90;999.90;;;27.10;99.90;;;;;;5124625;28;20832;-83
2021/07/29 12:33:52;;;;;;;1999.90;999.90;;;26.90;99.90;;;;;;5140523;27;20479;-82
2021/07/29 12:36:20;;;;;;;1999.90;999.90;;;27.50;99.90;;;;;;5133042;27;20467;-82
2021/07/29 12:38:56;;;;;;;1999.90;999.90;;;27.40;99.90;;;;;;5136035;22;20520;-83
2021/07/29 12:41:30;;;;;;;1999.90;999.90;;;27.40;99.90;;;;;;5062691;28;20827;-84
2021/07/29 12:44:14;;;;;;;1999.90;999.90;;;26.60;99.90;;;;;;5067029;28;20451;-84
2021/07/29 12:46:43;;;;;;;1999.90;999.90;;;26.50;99.90;;;;;;5065874;28;20454;-84
2021/07/29 12:49:11;;;;;;;1999.90;999.90;;;25.50;99.90;;;;;;5060247;28;20491;-84
2021/07/29 12:51:41;;;;;;;1999.90;999.90;;;24.50;99.00;;;;;;5049281;28;20535;-84
2021/07/29 12:54:09;;;;;;;1999.90;999.90;;;24.00;99.90;;;;;;5061631;28;20482;-84
2021/07/29 12:56:37;;;;;;;1999.90;999.90;;;23.90;99.90;;;;;;5056687;28;20477;-84